Time;durP1;ratioP1;P1;durP2;ratioP2;P2;SDS_P1;SDS_P2;PMS_P1;PMS_P2;Temp;Humidity;BMP_temperature;BMP_pressure;BME280_temperature;BME280_humidity;BME280_pressure;Samples;Min_cycle;Max_cycle;Signal;HPM_P1;HPM_P2
2023/05/14 00:01:20;;;;;;;6.75;4.72;;;12.20;99.90;;;;;;5037188;28;20132;-75
2023/05/14 00:03:45;;;;;;;6.75;4.60;;;12.20;99.90;;;;;;5036559;28;20099;-74
2023/05/14 00:06:11;;;;;;;8.38;4.72;;;12.20;99.90;;;;;;5037260;28;20034;-74
2023/05/14 00:08:36;;;;;;;8.23;4.30;;;12.20;99.90;;;;;;5036832;28;20585;-74
2023/05/14 00:11:02;;;;;;;7.20;4.75;;;12.20;99.90;;;;;;5036854;28;20386;-75
2023/05/14 00:13:28;;;;;;;4.90;4.40;;;12.20;99.90;;;;;;5036912;28;20417;-74
2023/05/14 00:15:54;;;;;;;5.55;4.93;;;12.10;99.90;;;;;;5037106;28;20060;-75
2023/05/14 00:18:19;;;;;;;8.55;5.07;;;12.00;99.90;;;;;;5036723;28;20056;-76
2023/05/14 00:20:45;;;;;;;6.07;4.45;;;12.00;99.90;;;;;;5036913;28;20025;-75
2023/05/14 00:23:11;;;;;;;7.35;5.18;;;12.00;99.90;;;;;;5037137;28;20037;-75
2023/05/14 00:25:37;;;;;;;7.63;4.78;;;12.00;99.90;;;;;;5036544;28;20100;-74
2023/05/14 00:28:03;;;;;;;6.03;4.80;;;12.00;99.90;;;;;;5036727;28;20053;-73
2023/05/14 00:30:28;;;;;;;5.80;5.03;;;11.90;99.90;;;;;;5036792;28;20025;-77
2023/05/14 00:32:54;;;;;;;7.78;4.88;;;11.90;99.90;;;;;;5036810;28;20034;-74
2023/05/14 00:35:20;;;;;;;6.97;5.90;;;11.90;99.90;;;;;;5036679;28;20057;-77
2023/05/14 00:37:46;;;;;;;8.98;5.35;;;11.80;99.90;;;;;;5036727;28;20022;-74
2023/05/14 00:40:12;;;;;;;6.47;5.38;;;11.80;99.90;;;;;;5024057;28;20022;-76
2023/05/14 00:42:39;;;;;;;10.73;7.38;;;11.80;99.90;;;;;;5036597;28;20030;-74
2023/05/14 00:45:06;;;;;;;9.55;6.53;;;11.70;99.90;;;;;;5036952;28;20029;-75
2023/05/14 00:47:33;;;;;;;9.75;6.80;;;11.70;99.90;;;;;;5035188;28;20049;-75
2023/05/14 00:49:59;;;;;;;9.60;6.05;;;11.70;99.90;;;;;;5036636;28;20017;-75
2023/05/14 00:52:25;;;;;;;15.02;6.82;;;11.60;99.90;;;;;;5036489;28;20032;-76
2023/05/14 00:54:51;;;;;;;8.77;6.57;;;11.70;99.90;;;;;;5036386;28;20092;-76
2023/05/14 00:57:17;;;;;;;9.07;6.82;;;11.70;99.90;;;;;;5036490;28;20057;-75
2023/05/14 00:59:43;;;;;;;8.20;6.60;;;11.60;99.90;;;;;;5035435;28;20026;-73
2023/05/14 01:02:09;;;;;;;8.15;7.05;;;11.60;99.90;;;;;;5036414;28;20580;-75
2023/05/14 01:04:37;;;;;;;8.23;6.25;;;11.60;99.90;;;;;;5036579;28;20025;-77
2023/05/14 01:07:28;;;;;;;8.38;7.28;;;11.60;99.90;;;;;;5036485;28;20025;-73
2023/05/14 01:10:09;;;;;;;9.85;6.93;;;11.60;99.90;;;;;;5035031;28;20052;-75
2023/05/14 01:12:45;;;;;;;8.35;6.78;;;11.60;99.90;;;;;;5036285;28;20079;-75
2023/05/14 01:15:18;;;;;;;10.40;8.25;;;11.60;99.90;;;;;;5038400;28;20075;-74
2023/05/14 01:17:58;;;;;;;10.48;7.15;;;11.60;99.90;;;;;;5040283;28;20045;-75
2023/05/14 01:20:25;;;;;;;10.80;8.45;;;11.60;99.90;;;;;;5040061;28;20080;-75
2023/05/14 01:22:50;;;;;;;8.52;7.53;;;11.60;99.90;;;;;;5040209;28;20064;-77
2023/05/14 01:25:16;;;;;;;11.77;7.57;;;11.60;99.90;;;;;;5039595;28;20508;-75
2023/05/14 01:28:16;;;;;;;10.98;8.48;;;11.60;99.90;;;;;;5038625;28;20505;-74
2023/05/14 01:30:52;;;;;;;11.20;9.40;;;11.60;99.90;;;;;;5032513;28;20030;-75
2023/05/14 01:33:20;;;;;;;9.50;8.13;;;11.60;99.90;;;;;;5038102;28;20033;-76
2023/05/14 01:35:46;;;;;;;10.02;9.02;;;11.60;99.90;;;;;;5038554;28;20021;-73
2023/05/14 01:38:16;;;;;;;8.57;7.68;;;11.60;99.90;;;;;;5038263;28;20083;-76
2023/05/14 01:40:43;;;;;;;9.25;7.07;;;11.70;99.90;;;;;;5039497;28;20113;-76
2023/05/14 01:43:10;;;;;;;12.05;8.70;;;11.70;99.90;;;;;;5039530;28;20044;-75
2023/05/14 01:45:36;;;;;;;10.18;8.30;;;11.70;99.90;;;;;;5039868;28;20029;-75
2023/05/14 01:48:02;;;;;;;8.77;7.88;;;11.70;99.90;;;;;;5039255;28;20028;-73
2023/05/14 01:50:28;;;;;;;12.35;8.40;;;11.80;99.90;;;;;;5039692;28;20030;-75
2023/05/14 01:52:55;;;;;;;10.25;9.18;;;11.70;99.90;;;;;;5038125;28;20554;-75
2023/05/14 01:55:23;;;;;;;9.60;8.52;;;11.80;99.90;;;;;;5037896;28;20067;-74
2023/05/14 01:57:52;;;;;;;11.82;7.45;;;11.80;99.90;;;;;;5039341;28;20025;-76
2023/05/14 02:00:18;;;;;;;11.77;8.40;;;11.80;99.90;;;;;;5039568;28;20385;-73
2023/05/14 02:02:44;;;;;;;12.52;6.22;;;11.80;99.90;;;;;;5039230;28;20039;-75
2023/05/14 02:05:10;;;;;;;11.65;8.13;;;11.80;99.90;;;;;;5038006;28;20033;-73
2023/05/14 02:07:36;;;;;;;9.43;8.35;;;11.80;99.90;;;;;;5039048;28;20049;-72
2023/05/14 02:10:02;;;;;;;10.88;8.80;;;11.80;99.90;;;;;;5039091;28;20025;-75
2023/05/14 02:12:28;;;;;;;12.10;8.73;;;11.80;99.90;;;;;;5035646;28;20397;-73
2023/05/14 02:14:53;;;;;;;11.18;9.05;;;11.80;99.90;;;;;;5039163;28;20021;-73
2023/05/14 02:17:19;;;;;;;11.60;9.10;;;11.80;99.90;;;;;;5038925;28;20041;-73
2023/05/14 02:19:45;;;;;;;10.98;9.25;;;11.80;99.90;;;;;;5038848;28;20425;-74
2023/05/14 02:22:11;;;;;;;11.30;9.05;;;11.80;99.90;;;;;;5037862;28;20033;-72
2023/05/14 02:24:37;;;;;;;11.88;9.20;;;11.80;99.90;;;;;;5037129;28;20397;-72
2023/05/14 02:27:02;;;;;;;9.63;8.05;;;11.80;99.90;;;;;;5038774;28;20027;-74
2023/05/14 02:29:28;;;;;;;12.43;8.23;;;11.80;99.90;;;;;;5038649;28;20059;-73
2023/05/14 02:31:54;;;;;;;15.02;10.93;;;11.80;99.90;;;;;;5038745;28;20083;-73
2023/05/14 02:34:20;;;;;;;20.42;9.93;;;11.90;99.90;;;;;;5037186;28;20018;-74
2023/05/14 02:36:46;;;;;;;11.50;9.93;;;11.80;99.90;;;;;;5038914;28;20036;-72
2023/05/14 02:39:11;;;;;;;10.85;8.20;;;11.80;99.90;;;;;;5038655;28;20021;-73
2023/05/14 02:41:37;;;;;;;12.27;9.23;;;11.90;99.90;;;;;;5038474;28;20028;-73
2023/05/14 02:44:03;;;;;;;11.68;8.93;;;11.90;99.90;;;;;;5038598;28;20026;-73
2023/05/14 02:46:30;;;;;;;11.10;9.13;;;11.80;99.90;;;;;;5038822;28;20108;-74
2023/05/14 02:48:56;;;;;;;14.07;9.93;;;11.90;99.90;;;;;;5037083;28;20028;-73
2023/05/14 02:51:21;;;;;;;13.68;9.88;;;11.80;99.90;;;;;;5038306;28;20494;-74
2023/05/14 02:53:47;;;;;;;13.15;10.10;;;11.80;99.90;;;;;;5038373;28;20056;-73
2023/05/14 02:56:13;;;;;;;14.45;10.68;;;11.70;99.90;;;;;;5036942;28;20025;-73
2023/05/14 02:58:38;;;;;;;14.50;11.52;;;11.70;99.90;;;;;;5038475;28;20029;-73
2023/05/14 03:01:04;;;;;;;14.50;10.05;;;11.70;99.90;;;;;;5037093;28;20101;-74
2023/05/14 03:03:30;;;;;;;12.80;10.82;;;11.70;99.90;;;;;;5038045;28;20022;-74
2023/05/14 03:05:56;;;;;;;13.77;10.30;;;11.70;99.90;;;;;;5036017;28;20189;-74
2023/05/14 03:08:22;;;;;;;13.35;9.73;;;11.70;99.90;;;;;;5036381;28;20025;-74
2023/05/14 03:10:47;;;;;;;11.98;10.73;;;11.70;99.90;;;;;;5036310;28;20383;-74
2023/05/14 03:13:16;;;;;;;14.13;11.30;;;11.70;99.90;;;;;;5037910;28;20029;-73
2023/05/14 03:15:46;;;;;;;12.68;10.82;;;11.70;99.90;;;;;;5036379;28;20064;-73
2023/05/14 03:18:12;;;;;;;14.52;11.10;;;11.70;99.90;;;;;;5037714;28;20565;-73
2023/05/14 03:20:38;;;;;;;13.02;10.68;;;11.70;99.90;;;;;;5037654;28;20097;-73
2023/05/14 03:23:04;;;;;;;12.07;10.57;;;11.70;99.90;;;;;;5036646;28;20103;-73
2023/05/14 03:25:30;;;;;;;12.25;10.60;;;11.80;99.90;;;;;;5037508;28;20474;-73
2023/05/14 03:27:55;;;;;;;13.98;10.13;;;11.80;99.90;;;;;;5037536;28;20408;-75
2023/05/14 03:30:21;;;;;;;11.65;9.70;;;11.80;99.90;;;;;;5036348;28;20026;-74
2023/05/14 03:32:47;;;;;;;14.32;9.73;;;11.80;99.90;;;;;;5036649;28;20109;-74
2023/05/14 03:35:13;;;;;;;11.63;9.38;;;11.70;99.90;;;;;;5037456;28;20025;-74
2023/05/14 03:37:38;;;;;;;15.27;10.27;;;11.70;99.90;;;;;;5037162;28;20056;-74
2023/05/14 03:40:05;;;;;;;11.57;10.25;;;11.70;99.90;;;;;;5037111;28;20060;-73
2023/05/14 03:42:30;;;;;;;11.85;9.30;;;11.70;99.90;;;;;;5037588;28;20021;-73
2023/05/14 03:44:56;;;;;;;9.77;8.80;;;11.60;99.90;;;;;;5037228;28;20493;-73
2023/05/14 03:47:22;;;;;;;10.32;9.15;;;11.70;99.90;;;;;;5036092;28;20021;-73
2023/05/14 03:49:47;;;;;;;9.90;8.48;;;11.70;99.90;;;;;;5035817;28;20033;-74
2023/05/14 03:52:13;;;;;;;12.60;8.55;;;11.70;99.90;;;;;;5037300;28;20051;-74
2023/05/14 03:54:40;;;;;;;10.05;8.38;;;11.70;99.90;;;;;;5035826;28;20029;-74
2023/05/14 03:57:06;;;;;;;9.88;8.23;;;11.70;99.90;;;;;;5031067;28;20389;-73
2023/05/14 03:59:31;;;;;;;10.20;8.23;;;11.70;99.90;;;;;;5037164;28;20022;-74
2023/05/14 04:01:57;;;;;;;10.90;9.00;;;11.70;99.90;;;;;;5037466;28;20067;-73
2023/05/14 04:04:23;;;;;;;11.50;9.07;;;11.70;99.90;;;;;;5036851;28;20032;-75
2023/05/14 04:06:48;;;;;;;14.40;9.32;;;11.70;99.90;;;;;;5037372;28;20489;-74
2023/05/14 04:09:14;;;;;;;10.90;8.27;;;11.70;99.90;;;;;;5036814;28;20060;-74
2023/05/14 04:11:40;;;;;;;10.32;8.38;;;11.70;99.90;;;;;;5035870;28;20017;-73
2023/05/14 04:14:05;;;;;;;9.15;7.95;;;11.70;99.90;;;;;;5036821;28;20405;-73
2023/05/14 04:16:31;;;;;;;8.43;7.22;;;11.70;99.90;;;;;;5037174;28;20025;-73
2023/05/14 04:18:57;;;;;;;9.85;8.77;;;11.70;99.90;;;;;;5036402;28;20506;-73
2023/05/14 04:21:22;;;;;;;9.88;7.63;;;11.70;99.90;;;;;;5036993;28;20080;-74
2023/05/14 04:23:49;;;;;;;11.55;9.13;;;11.70;99.90;;;;;;5035445;28;20021;-73
2023/05/14 04:26:15;;;;;;;11.85;9.43;;;11.80;99.90;;;;;;5035355;28;20033;-73
2023/05/14 04:28:40;;;;;;;9.18;8.25;;;11.80;99.90;;;;;;5035285;28;20552;-73
2023/05/14 04:31:06;;;;;;;11.40;8.35;;;11.70;99.90;;;;;;5036949;28;20100;-73
2023/05/14 04:33:32;;;;;;;10.52;9.02;;;11.80;99.90;;;;;;5036390;28;20030;-73
2023/05/14 04:35:57;;;;;;;8.35;7.45;;;11.80;99.90;;;;;;5036923;28;20025;-73
2023/05/14 04:38:23;;;;;;;8.65;7.47;;;11.80;99.90;;;;;;5036640;28;20025;-74
2023/05/14 04:40:49;;;;;;;9.27;8.30;;;11.80;99.90;;;;;;5036527;28;20021;-73
2023/05/14 04:43:15;;;;;;;8.30;7.00;;;11.80;99.90;;;;;;5036499;28;20486;-73
2023/05/14 04:45:41;;;;;;;10.57;7.78;;;11.80;99.90;;;;;;5035596;28;20029;-73
2023/05/14 04:48:07;;;;;;;9.18;8.10;;;11.80;99.90;;;;;;5037019;28;20029;-73
2023/05/14 04:50:34;;;;;;;8.35;7.55;;;11.80;99.90;;;;;;5039571;28;20025;-74
2023/05/14 04:52:59;;;;;;;7.18;6.47;;;11.80;99.90;;;;;;5039233;28;20486;-74
2023/05/14 04:55:25;;;;;;;9.20;7.03;;;11.80;99.90;;;;;;5040428;28;20082;-74
2023/05/14 04:57:51;;;;;;;8.60;7.30;;;11.80;99.90;;;;;;5040446;28;20026;-74
2023/05/14 05:00:18;;;;;;;8.82;7.93;;;11.90;99.90;;;;;;5039270;28;20025;-73
2023/05/14 05:02:43;;;;;;;8.90;7.45;;;11.90;99.90;;;;;;5040207;28;20402;-74
2023/05/14 05:05:09;;;;;;;10.38;6.97;;;11.90;99.90;;;;;;5040458;28;20021;-73
2023/05/14 05:07:35;;;;;;;8.95;8.05;;;11.90;99.90;;;;;;5038759;28;20037;-73
2023/05/14 05:10:01;;;;;;;9.75;8.40;;;11.90;99.90;;;;;;5040271;28;20017;-74
2023/05/14 05:12:28;;;;;;;9.18;8.20;;;11.90;99.90;;;;;;5040095;28;20043;-73
2023/05/14 05:14:57;;;;;;;7.70;6.75;;;12.00;99.90;;;;;;5040347;28;20017;-73
2023/05/14 05:17:24;;;;;;;7.85;7.05;;;12.00;99.90;;;;;;5030340;28;20077;-72
2023/05/14 05:19:50;;;;;;;8.60;7.45;;;12.00;99.90;;;;;;5040082;28;20021;-73
2023/05/14 05:22:16;;;;;;;8.90;7.45;;;12.00;99.90;;;;;;5040205;28;20128;-73
2023/05/14 05:24:41;;;;;;;9.15;7.43;;;11.90;99.90;;;;;;5039926;28;20128;-74
2023/05/14 05:27:08;;;;;;;9.40;6.72;;;11.90;99.90;;;;;;5039909;28;20046;-74
2023/05/14 05:29:34;;;;;;;8.15;7.03;;;12.00;99.90;;;;;;5040091;28;20029;-74
2023/05/14 05:32:00;;;;;;;7.22;6.45;;;11.90;99.90;;;;;;5039744;28;20049;-73
2023/05/14 05:34:26;;;;;;;10.52;7.53;;;11.90;99.90;;;;;;5038487;28;20475;-73
2023/05/14 05:36:51;;;;;;;7.82;7.03;;;11.90;99.90;;;;;;5038452;28;20466;-73
2023/05/14 05:39:17;;;;;;;9.10;7.60;;;11.90;99.90;;;;;;5039635;28;20053;-72
2023/05/14 05:41:43;;;;;;;7.65;6.45;;;11.90;99.90;;;;;;5038249;28;20053;-74
2023/05/14 05:44:08;;;;;;;8.32;6.72;;;11.90;99.90;;;;;;5038331;28;20029;-74
2023/05/14 05:46:34;;;;;;;7.15;6.45;;;12.00;99.90;;;;;;5038352;28;20025;-73
2023/05/14 05:49:00;;;;;;;14.02;6.72;;;11.90;99.90;;;;;;5038239;28;20029;-74
2023/05/14 05:51:25;;;;;;;7.00;6.30;;;11.90;99.90;;;;;;5030000;28;20036;-75
2023/05/14 05:53:51;;;;;;;8.65;6.35;;;11.90;99.90;;;;;;5038227;28;20021;-74
2023/05/14 05:56:17;;;;;;;9.90;6.85;;;11.90;99.90;;;;;;5037815;28;20049;-74
2023/05/14 05:58:42;;;;;;;8.73;7.72;;;12.00;99.90;;;;;;5039547;28;20029;-73
2023/05/14 06:01:08;;;;;;;7.10;6.50;;;12.00;99.90;;;;;;5030479;28;20037;-73
2023/05/14 06:03:34;;;;;;;7.72;6.38;;;12.00;99.90;;;;;;5019725;28;20030;-74
2023/05/14 06:05:59;;;;;;;9.23;7.63;;;12.00;99.90;;;;;;5038421;28;20022;-73
2023/05/14 06:08:25;;;;;;;12.10;6.55;;;12.00;99.90;;;;;;5038435;28;20036;-73
2023/05/14 06:10:51;;;;;;;8.45;7.43;;;12.10;99.90;;;;;;5037151;28;20036;-73
2023/05/14 06:13:17;;;;;;;8.30;7.18;;;12.10;99.90;;;;;;5034038;28;20043;-73
2023/05/14 06:15:42;;;;;;;8.75;7.05;;;12.20;99.90;;;;;;5037400;28;20117;-73
2023/05/14 06:18:08;;;;;;;9.35;7.55;;;12.20;99.90;;;;;;5038610;28;20034;-74
2023/05/14 06:20:34;;;;;;;8.90;6.68;;;12.30;99.90;;;;;;5038961;28;20029;-72
2023/05/14 06:22:59;;;;;;;7.85;7.05;;;12.30;99.90;;;;;;5037683;28;20468;-73
2023/05/14 06:25:25;;;;;;;7.15;6.45;;;12.40;99.90;;;;;;5038542;28;20021;-74
2023/05/14 06:27:51;;;;;;;6.93;6.03;;;12.40;99.90;;;;;;5038949;28;20025;-73
2023/05/14 06:30:16;;;;;;;7.90;6.50;;;12.40;99.90;;;;;;5038530;28;20029;-74
2023/05/14 06:32:42;;;;;;;7.28;6.53;;;12.50;99.90;;;;;;5038851;28;20025;-73
2023/05/14 06:35:08;;;;;;;7.38;6.68;;;12.50;99.90;;;;;;5038462;28;20022;-73
2023/05/14 06:37:34;;;;;;;6.47;5.88;;;12.60;99.90;;;;;;5038779;28;20081;-72
2023/05/14 06:40:00;;;;;;;8.13;5.93;;;12.60;99.90;;;;;;5038193;28;20025;-73
2023/05/14 06:42:26;;;;;;;5.85;5.30;;;12.70;99.90;;;;;;5037446;28;20456;-75
2023/05/14 06:44:51;;;;;;;6.93;6.22;;;12.80;99.90;;;;;;5038045;28;20037;-71
2023/05/14 06:47:17;;;;;;;7.15;6.45;;;12.80;99.90;;;;;;5038373;28;20033;-75
2023/05/14 06:49:43;;;;;;;9.30;6.22;;;12.80;99.90;;;;;;5038087;28;20018;-72
2023/05/14 06:52:08;;;;;;;7.05;6.05;;;12.90;99.90;;;;;;5036975;28;20021;-72
2023/05/14 06:54:34;;;;;;;8.05;6.80;;;12.90;99.90;;;;;;5036498;28;20021;-71
2023/05/14 06:57:00;;;;;;;7.13;6.43;;;12.90;99.90;;;;;;5037003;28;20390;-73
2023/05/14 06:59:26;;;;;;;6.07;5.13;;;12.90;99.90;;;;;;5037676;28;20025;-75
2023/05/14 07:01:51;;;;;;;8.00;6.80;;;13.00;99.90;;;;;;5027933;28;20029;-73
2023/05/14 07:04:17;;;;;;;8.60;6.65;;;13.10;99.90;;;;;;5029369;28;20095;-73
2023/05/14 07:06:43;;;;;;;7.38;6.32;;;13.20;99.90;;;;;;5038326;28;20032;-73
2023/05/14 07:09:09;;;;;;;7.97;6.28;;;13.20;99.90;;;;;;5036233;28;20029;-73
2023/05/14 07:11:35;;;;;;;6.45;5.75;;;13.30;99.90;;;;;;5036837;28;20037;-74
2023/05/14 07:14:00;;;;;;;7.70;6.90;;;13.40;99.90;;;;;;5036991;28;20033;-73
2023/05/14 07:16:26;;;;;;;8.00;6.43;;;13.50;99.90;;;;;;5022892;28;20022;-74
2023/05/14 07:18:52;;;;;;;8.98;6.75;;;13.60;99.90;;;;;;5034601;28;20084;-73
2023/05/14 07:21:17;;;;;;;8.73;6.22;;;13.60;99.90;;;;;;5033999;28;20044;-75
2023/05/14 07:23:43;;;;;;;7.45;6.07;;;13.70;99.90;;;;;;5036284;28;20053;-74
2023/05/14 07:26:09;;;;;;;6.18;5.57;;;13.70;99.90;;;;;;5035461;28;20035;-72
2023/05/14 07:28:34;;;;;;;7.68;6.70;;;13.70;99.90;;;;;;5034503;28;20561;-74
2023/05/14 07:31:00;;;;;;;6.70;5.80;;;13.80;99.90;;;;;;5035958;28;20100;-74
2023/05/14 07:33:26;;;;;;;6.60;5.53;;;13.90;99.90;;;;;;5031685;28;20034;-75
2023/05/14 07:35:53;;;;;;;8.40;6.18;;;13.90;99.90;;;;;;5033898;28;20033;-74
2023/05/14 07:38:19;;;;;;;7.85;5.78;;;13.90;99.90;;;;;;5033194;28;20501;-75
2023/05/14 07:40:45;;;;;;;8.40;5.20;;;14.00;99.90;;;;;;5032560;28;20032;-73
2023/05/14 07:43:10;;;;;;;8.48;5.63;;;14.00;99.90;;;;;;5034653;28;20026;-75
2023/05/14 07:45:38;;;;;;;7.18;5.72;;;14.00;99.90;;;;;;5034213;28;20464;-74
2023/05/14 07:48:03;;;;;;;8.63;5.85;;;14.10;99.90;;;;;;5033163;28;20025;-74
2023/05/14 07:50:30;;;;;;;8.80;6.07;;;14.30;99.90;;;;;;5035879;28;20423;-74
2023/05/14 07:52:55;;;;;;;7.13;5.75;;;14.50;99.90;;;;;;5035771;28;20025;-74
2023/05/14 07:55:21;;;;;;;9.23;6.38;;;14.70;99.90;;;;;;5034163;28;20040;-75
2023/05/14 07:57:47;;;;;;;6.88;5.65;;;14.80;99.90;;;;;;5035436;28;20030;-74
2023/05/14 08:00:13;;;;;;;8.52;5.30;;;14.80;99.90;;;;;;5034411;28;20040;-74
2023/05/14 08:02:38;;;;;;;8.73;6.30;;;14.90;99.90;;;;;;5035694;28;20033;-74
2023/05/14 08:05:05;;;;;;;7.47;5.32;;;15.00;99.90;;;;;;5025630;28;20126;-74
2023/05/14 08:07:32;;;;;;;6.75;5.20;;;15.10;99.90;;;;;;5031910;28;20083;-73
2023/05/14 08:09:58;;;;;;;9.43;6.78;;;15.20;99.90;;;;;;5033247;28;20501;-73
2023/05/14 08:12:24;;;;;;;6.38;5.18;;;15.10;99.90;;;;;;5031699;28;20033;-74
2023/05/14 08:14:50;;;;;;;8.48;4.57;;;15.10;99.90;;;;;;5030610;28;20025;-73
2023/05/14 08:17:16;;;;;;;7.07;5.32;;;15.10;99.90;;;;;;5033605;28;20037;-73
2023/05/14 08:19:42;;;;;;;8.70;5.38;;;15.10;99.90;;;;;;5031195;28;20025;-74
2023/05/14 08:22:08;;;;;;;5.55;5.00;;;15.00;99.90;;;;;;5032483;28;20077;-75
2023/05/14 08:24:33;;;;;;;8.27;5.20;;;15.10;99.90;;;;;;5031846;28;20378;-73
2023/05/14 08:26:59;;;;;;;5.25;4.15;;;15.10;99.90;;;;;;5033279;28;20021;-74
2023/05/14 08:29:25;;;;;;;7.38;4.30;;;15.00;99.90;;;;;;5029613;28;20096;-74
2023/05/14 08:31:50;;;;;;;6.43;4.93;;;14.90;99.90;;;;;;5035167;28;20173;-73
2023/05/14 08:34:17;;;;;;;5.82;4.68;;;15.00;99.90;;;;;;5033772;28;20037;-72
2023/05/14 08:36:42;;;;;;;6.68;5.45;;;15.00;99.90;;;;;;5033434;28;20028;-72
2023/05/14 08:39:08;;;;;;;7.70;5.32;;;15.10;99.90;;;;;;5040869;28;20020;-72
2023/05/14 08:41:34;;;;;;;6.15;4.85;;;15.20;99.90;;;;;;5036447;28;20551;-71
2023/05/14 08:44:24;;;;;;;6.35;5.22;;;15.10;99.90;;;;;;5036698;28;20033;-73
2023/05/14 08:46:51;;;;;;;5.43;4.82;;;15.10;99.90;;;;;;5045447;28;20025;-73
2023/05/14 08:49:41;;;;;;;10.02;4.55;;;15.20;99.90;;;;;;5022849;28;20485;-72
2023/05/14 08:52:11;;;;;;;7.22;5.40;;;15.30;99.90;;;;;;5032315;28;20036;-73
2023/05/14 08:54:38;;;;;;;5.47;4.85;;;15.10;99.90;;;;;;5030134;28;20029;-73
2023/05/14 08:57:05;;;;;;;6.20;5.05;;;14.90;99.90;;;;;;5049532;28;20022;-73
2023/05/14 08:59:30;;;;;;;6.35;4.32;;;14.90;99.90;;;;;;5022509;28;20080;-72
2023/05/14 09:02:00;;;;;;;7.18;5.40;;;15.00;99.90;;;;;;5037488;28;20017;-73
2023/05/14 09:04:27;;;;;;;7.85;5.05;;;15.10;99.90;;;;;;5031512;28;20044;-72
2023/05/14 09:06:54;;;;;;;5.55;4.82;;;15.10;99.90;;;;;;5028812;28;20030;-73
2023/05/14 09:09:23;;;;;;;8.77;5.78;;;15.10;99.90;;;;;;5035969;28;20024;-72
2023/05/14 09:11:51;;;;;;;6.28;5.63;;;15.10;99.90;;;;;;5036514;28;20029;-72
2023/05/14 09:14:17;;;;;;;6.78;4.75;;;15.30;99.90;;;;;;5035918;28;20025;-72
2023/05/14 09:16:45;;;;;;;5.72;4.78;;;15.20;99.90;;;;;;5036406;28;20029;-72
2023/05/14 09:19:12;;;;;;;5.45;4.95;;;15.20;99.90;;;;;;5036136;28;20041;-72
2023/05/14 09:21:39;;;;;;;8.63;5.57;;;15.10;99.90;;;;;;5036163;28;20032;-72
2023/05/14 09:24:05;;;;;;;7.78;5.15;;;15.00;99.90;;;;;;5034833;28;20025;-73
2023/05/14 09:26:32;;;;;;;6.75;5.03;;;15.00;99.90;;;;;;5036208;28;20026;-72
2023/05/14 09:29:02;;;;;;;6.93;5.20;;;15.00;99.90;;;;;;5036438;28;20120;-73
2023/05/14 09:31:32;;;;;;;14.10;5.87;;;14.90;99.90;;;;;;5034865;28;20120;-73
2023/05/14 09:33:59;;;;;;;4.43;3.37;;;14.80;99.90;;;;;;5033970;28;20075;-71
2023/05/14 09:36:26;;;;;;;9.50;5.85;;;14.80;99.90;;;;;;5038503;28;20271;-73
2023/05/14 09:38:52;;;;;;;7.03;5.57;;;14.80;99.90;;;;;;5039864;28;20022;-73
2023/05/14 09:41:18;;;;;;;7.78;5.72;;;15.00;99.90;;;;;;5039425;28;20029;-73
2023/05/14 09:43:44;;;;;;;7.32;6.53;;;15.20;99.90;;;;;;5039784;28;20032;-72
2023/05/14 09:46:09;;;;;;;7.38;5.45;;;15.50;99.90;;;;;;5038346;28;20048;-73
2023/05/14 09:48:35;;;;;;;8.48;5.72;;;15.70;99.90;;;;;;5039467;28;20078;-73
2023/05/14 09:51:01;;;;;;;6.38;5.38;;;16.10;99.90;;;;;;5039479;28;20059;-73
2023/05/14 09:53:27;;;;;;;6.22;5.22;;;16.30;99.90;;;;;;5039729;28;20037;-73
2023/05/14 09:55:52;;;;;;;7.25;5.20;;;16.40;99.90;;;;;;5036134;28;20026;-73
2023/05/14 09:58:18;;;;;;;6.95;5.30;;;16.50;99.90;;;;;;5038173;28;20025;-72
2023/05/14 10:00:46;;;;;;;7.55;5.75;;;16.90;99.90;;;;;;5039414;28;20031;-74
2023/05/14 10:03:13;;;;;;;5.35;4.85;;;16.90;99.90;;;;;;5039358;28;20033;-72
2023/05/14 10:05:40;;;;;;;11.82;5.43;;;16.60;99.90;;;;;;5039465;28;20018;-72
2023/05/14 10:08:14;;;;;;;7.18;5.53;;;16.30;99.90;;;;;;5039382;28;20022;-73
2023/05/14 10:10:40;;;;;;;7.25;5.00;;;16.30;99.90;;;;;;5031704;28;20021;-72
2023/05/14 10:13:14;;;;;;;6.55;4.82;;;16.40;99.90;;;;;;5026611;28;20056;-73
2023/05/14 10:15:46;;;;;;;6.30;4.82;;;16.70;99.90;;;;;;5037361;28;20029;-71
2023/05/14 10:18:15;;;;;;;5.53;4.60;;;17.00;99.90;;;;;;5032763;28;20045;-73
2023/05/14 10:20:41;;;;;;;5.13;4.50;;;17.30;99.90;;;;;;5038958;28;20027;-72
2023/05/14 10:23:07;;;;;;;6.38;5.20;;;17.20;99.90;;;;;;5039172;28;20025;-73
2023/05/14 10:25:35;;;;;;;4.90;4.35;;;17.20;99.90;;;;;;5038610;28;20025;-73
2023/05/14 10:28:02;;;;;;;6.65;5.60;;;17.30;99.90;;;;;;5039022;28;20018;-73
2023/05/14 10:30:27;;;;;;;5.57;4.55;;;17.20;99.90;;;;;;5037607;28;20025;-73
2023/05/14 10:33:12;;;;;;;5.20;4.25;;;17.30;99.90;;;;;;5036736;28;20039;-74
2023/05/14 10:35:56;;;;;;;6.72;3.70;;;17.40;99.90;;;;;;5028147;28;20030;-73
2023/05/14 10:38:28;;;;;;;4.65;3.40;;;17.50;99.90;;;;;;5037386;28;20022;-72
2023/05/14 10:41:05;;;;;;;5.32;3.78;;;17.50;99.90;;;;;;5038695;28;20017;-72
2023/05/14 10:43:38;;;;;;;4.95;3.88;;;17.40;99.90;;;;;;5028073;28;20026;-72
2023/05/14 10:46:05;;;;;;;5.53;3.65;;;17.40;99.90;;;;;;5038183;28;20052;-72
2023/05/14 10:48:31;;;;;;;5.68;3.70;;;17.40;99.90;;;;;;5038635;28;20024;-72
2023/05/14 10:50:58;;;;;;;7.50;3.97;;;17.30;99.90;;;;;;5038399;28;20067;-72
2023/05/14 10:53:37;;;;;;;5.72;3.22;;;17.40;99.90;;;;;;5038363;28;20029;-71
2023/05/14 10:56:22;;;;;;;4.07;3.67;;;17.40;99.90;;;;;;5038084;28;20021;-71
2023/05/14 10:58:49;;;;;;;9.98;3.97;;;17.40;99.90;;;;;;5038400;28;20025;-70
2023/05/14 11:01:14;;;;;;;4.93;3.63;;;17.50;99.90;;;;;;5038349;28;20139;-71
2023/05/14 11:03:45;;;;;;;3.92;3.45;;;17.50;99.90;;;;;;5036891;28;20501;-72
2023/05/14 11:06:12;;;;;;;5.65;3.65;;;17.40;99.90;;;;;;5038418;28;20022;-71
2023/05/14 11:08:39;;;;;;;4.68;3.85;;;17.40;99.90;;;;;;5036745;28;20106;-72
2023/05/14 11:11:08;;;;;;;4.88;3.10;;;17.40;99.90;;;;;;5038142;28;20044;-72
2023/05/14 11:13:34;;;;;;;5.57;3.33;;;17.50;99.90;;;;;;5034525;28;20030;-71
2023/05/14 11:16:01;;;;;;;9.57;3.75;;;17.60;99.90;;;;;;5037676;28;20109;-71
2023/05/14 11:18:28;;;;;;;3.90;3.45;;;17.70;99.90;;;;;;5036303;28;20041;-71
2023/05/14 11:20:59;;;;;;;3.90;3.25;;;17.70;99.90;;;;;;5038056;28;20079;-70
2023/05/14 11:23:24;;;;;;;5.47;3.88;;;17.70;99.90;;;;;;5037773;28;20446;-74
2023/05/14 11:25:52;;;;;;;5.13;3.33;;;17.80;99.90;;;;;;5036468;28;20057;-72
2023/05/14 11:28:20;;;;;;;4.53;3.30;;;17.70;99.90;;;;;;5037691;28;20025;-73
2023/05/14 11:30:47;;;;;;;3.35;2.75;;;17.80;99.90;;;;;;5035546;28;20096;-72
2023/05/14 11:33:13;;;;;;;4.80;3.08;;;17.90;99.90;;;;;;5037473;28;20026;-72
2023/05/14 11:35:38;;;;;;;5.10;3.10;;;18.30;99.90;;;;;;5037909;28;20120;-72
2023/05/14 11:38:04;;;;;;;4.03;3.05;;;18.50;99.90;;;;;;5036287;28;20057;-72
2023/05/14 11:40:30;;;;;;;4.82;2.83;;;18.60;99.90;;;;;;5035708;28;20029;-73
2023/05/14 11:42:56;;;;;;;4.53;2.95;;;18.60;99.90;;;;;;5037462;28;20022;-75
2023/05/14 11:45:25;;;;;;;3.78;2.38;;;18.60;99.90;;;;;;5031598;28;20033;-72
2023/05/14 11:47:55;;;;;;;7.70;3.37;;;18.50;99.90;;;;;;5034913;28;20064;-72
2023/05/14 11:50:23;;;;;;;4.32;2.88;;;18.60;99.90;;;;;;5033668;28;20036;-73
2023/05/14 11:52:49;;;;;;;3.85;2.95;;;18.50;99.90;;;;;;5034799;28;20402;-72
2023/05/14 11:55:16;;;;;;;5.28;3.25;;;18.30;99.90;;;;;;5035760;28;20024;-73
2023/05/14 11:57:42;;;;;;;8.95;4.20;;;18.10;99.90;;;;;;5036918;28;20018;-72
2023/05/14 12:00:12;;;;;;;4.85;3.85;;;17.90;99.90;;;;;;5035746;28;20135;-73
2023/05/14 12:02:38;;;;;;;3.63;2.85;;;18.20;99.90;;;;;;5037205;28;20032;-73
2023/05/14 12:05:06;;;;;;;4.05;2.65;;;18.50;99.90;;;;;;5037436;28;20034;-74
2023/05/14 12:07:31;;;;;;;5.43;2.42;;;18.60;99.90;;;;;;5037018;28;20029;-72
2023/05/14 12:10:00;;;;;;;4.82;2.72;;;18.80;99.90;;;;;;5036855;28;20035;-74
2023/05/14 12:12:26;;;;;;;3.33;2.80;;;18.60;99.90;;;;;;5036642;28;20043;-72
2023/05/14 12:14:52;;;;;;;6.43;3.20;;;18.60;99.90;;;;;;5036970;28;20096;-72
2023/05/14 12:17:21;;;;;;;6.35;2.72;;;18.60;99.90;;;;;;5036433;28;20029;-73
2023/05/14 12:19:49;;;;;;;4.03;2.33;;;19.00;99.90;;;;;;5028039;28;20033;-73
2023/05/14 12:22:21;;;;;;;4.85;2.70;;;19.10;99.90;;;;;;5032607;28;20075;-72
2023/05/14 12:24:57;;;;;;;4.72;2.70;;;19.10;99.90;;;;;;5036759;28;20075;-72
2023/05/14 12:27:26;;;;;;;3.50;2.47;;;19.30;99.90;;;;;;5036851;28;20105;-71
2023/05/14 12:30:03;;;;;;;3.05;2.60;;;19.30;99.90;;;;;;5036998;28;20014;-72
2023/05/14 12:32:36;;;;;;;6.00;3.05;;;19.70;99.90;;;;;;5036788;28;20029;-71
2023/05/14 12:35:02;;;;;;;5.78;2.95;;;19.70;99.90;;;;;;5036764;28;20032;-71
2023/05/14 12:37:28;;;;;;;3.60;3.00;;;20.00;99.90;;;;;;5035489;28;20018;-74
2023/05/14 12:39:53;;;;;;;5.00;3.13;;;19.80;99.90;;;;;;5036642;28;20048;-71
2023/05/14 12:42:19;;;;;;;3.92;3.00;;;19.40;99.90;;;;;;5028782;28;20021;-71